Douglas, Georgia
Current Conditions -  °F | °C
As of 2:55 PM on Thursday 23 Oct 2014 (Local Time) from KDQH Reporting Station
Clear Clear  
Wind Chill: 73°   Ceiling: Unl
Heat Index: 73°   Visibility: 10mi
Dew Point: 41°   Wind: 5mph
Humidity: 31%   Direction: 320°NW
Pressure: 30.04"   Gusts: NA
Location:  31.51°N, 82.85°W
Report Text: KDQH 231855Z AUTO 32004KT 10SM CLR 23/05 A3004 RMK AO2
Loading
Personal Weather Stations






























Interactive Weather Map
Tropical Storm Tracking
New forecast layout! Learn more

10-Day Weather Forecast

Advertisements
Track Severe Weather on mobile